createdAt,value
2017-05-22T05:04:39.876Z,1023.23
2017-05-22T05:05:40.538Z,1023.27
2017-05-22T05:06:42.471Z,1023.23
2017-05-22T05:07:43.520Z,1023.24
2017-05-22T05:08:44.216Z,1023.26
2017-05-22T05:09:44.877Z,1023.27
2017-05-22T05:10:45.915Z,1023.23
2017-05-22T05:11:46.727Z,1023.27
2017-05-22T05:12:47.502Z,1023.23
2017-05-22T05:13:48.257Z,1023.25
2017-05-22T05:14:48.997Z,1023.24
2017-05-22T05:15:49.668Z,1023.23
2017-05-22T05:16:50.350Z,1023.22
2017-05-22T05:17:51.025Z,1023.2
2017-05-22T05:18:51.688Z,1023.17
2017-05-22T05:19:52.356Z,1023.18
2017-05-22T05:20:53.038Z,1023.17
2017-05-22T05:21:53.709Z,1023.22
2017-05-22T05:22:54.382Z,1023.19
2017-05-22T05:23:55.094Z,1023.19
2017-05-22T05:24:55.786Z,1023.09
2017-05-22T05:25:56.462Z,1023.1
2017-05-22T05:26:57.123Z,1023.14
2017-05-22T05:27:57.808Z,1023.13
2017-05-22T05:28:58.475Z,1023.09
2017-05-22T05:29:59.160Z,1023.08
2017-05-22T05:30:59.839Z,1023.11
2017-05-22T05:32:00.551Z,1023.09
2017-05-22T05:33:01.215Z,1023.09
2017-05-22T05:34:01.886Z,1023.12
2017-05-22T05:35:02.559Z,1023.12
2017-05-22T05:36:03.241Z,1023.05
2017-05-22T05:37:03.935Z,1023.07
2017-05-22T05:38:04.604Z,1023.05
2017-05-22T05:39:05.276Z,1023.09
2017-05-22T05:40:05.957Z,1023.04
2017-05-22T05:41:06.631Z,1023.07
2017-05-22T05:42:07.362Z,1023.05
2017-05-22T05:43:08.005Z,1023.03
2017-05-22T05:44:08.685Z,1023.04
2017-05-22T05:45:09.346Z,1023.02
2017-05-22T05:46:10.021Z,1023.03
2017-05-22T05:47:10.744Z,1023.04
2017-05-22T05:48:11.428Z,1023.09
2017-05-22T05:49:12.099Z,1023.08
2017-05-22T05:50:12.760Z,1023.04
2017-05-22T05:51:13.436Z,1023.08
2017-05-22T05:52:14.122Z,1023.03
2017-05-22T05:53:14.901Z,1023.06
2017-05-22T05:54:15.568Z,1023.06
2017-05-22T05:55:16.239Z,1023.03
2017-05-22T05:56:16.911Z,1023.05
2017-05-22T05:57:17.598Z,1023.03
2017-05-22T05:58:18.276Z,1023.01
2017-05-22T05:59:18.980Z,1023.04
2017-05-22T06:00:19.641Z,1023.11
2017-05-22T06:01:20.309Z,1023.09
2017-05-22T06:02:20.972Z,1023.09
2017-05-22T06:03:21.649Z,1023.1
2017-05-22T06:04:22.376Z,1023.11
2017-05-22T06:05:23.051Z,1023.08
2017-05-22T06:06:23.718Z,1023.09
2017-05-22T06:07:24.395Z,1023.07
2017-05-22T06:08:25.076Z,1023.05
2017-05-22T06:09:25.753Z,1023.05
2017-05-22T06:10:26.428Z,1023.1
2017-05-22T06:11:27.087Z,1023.05
2017-05-22T06:12:27.753Z,1023.03
2017-05-22T06:13:28.457Z,1023.05
2017-05-22T06:14:29.120Z,1023.03
2017-05-22T06:15:29.854Z,1023.09
2017-05-22T06:16:30.553Z,1023.07
2017-05-22T06:17:31.224Z,1023.07
2017-05-22T06:18:31.898Z,1023.06
2017-05-22T06:19:32.572Z,1023.09
2017-05-22T06:20:33.243Z,1023.09
2017-05-22T06:21:33.914Z,1023.04
2017-05-22T06:22:34.585Z,1023.05
2017-05-22T06:23:35.255Z,1023.03
2017-05-22T06:24:35.961Z,1023.02
2017-05-22T06:25:36.654Z,1023.04
2017-05-22T06:26:37.323Z,1023.05
2017-05-22T06:27:38.002Z,1023.04
2017-05-22T06:28:38.684Z,1023.11
2017-05-22T06:29:39.392Z,1023.08
2017-05-22T06:30:40.126Z,1023.14
2017-05-22T06:31:40.847Z,1023.26
2017-05-22T06:32:41.539Z,1023.27
2017-05-22T06:33:42.244Z,1023.23
2017-05-22T06:34:42.968Z,1023.23
2017-05-22T06:35:43.675Z,1023.19
2017-05-22T06:36:44.362Z,1023.24
2017-05-22T06:37:45.051Z,1023.2
2017-05-22T06:38:45.726Z,1023.19
2017-05-22T06:39:46.428Z,1023.23
2017-05-22T06:40:47.113Z,1023.23
2017-05-22T06:41:47.794Z,1023.22
2017-05-22T06:42:48.477Z,1023.24
2017-05-22T06:43:49.182Z,1023.29
2017-05-22T06:44:49.886Z,1023.28
2017-05-22T06:45:50.564Z,1023.25
2017-05-22T06:46:51.261Z,1023.3
2017-05-22T06:47:51.949Z,1023.3
2017-05-22T06:48:52.654Z,1023.22
2017-05-22T06:49:53.329Z,1023.22
2017-05-22T06:50:54.016Z,1023.24
2017-05-22T06:51:54.692Z,1023.26
2017-05-22T06:52:55.384Z,1023.28
2017-05-22T06:53:56.073Z,1023.26
2017-05-22T06:54:56.753Z,1023.25
2017-05-22T06:55:57.433Z,1023.2
2017-05-22T06:56:58.126Z,1023.2
2017-05-22T06:57:58.820Z,1023.22
2017-05-22T06:58:59.523Z,1023.19
2017-05-22T07:00:00.194Z,1023.15
2017-05-22T07:01:00.893Z,1023.18
2017-05-22T07:02:01.589Z,1023.16
2017-05-22T07:03:02.280Z,1023.11
2017-05-22T07:04:02.971Z,1023.11
2017-05-22T07:05:03.675Z,1023.05
2017-05-22T07:06:04.354Z,1023.05
2017-05-22T07:07:05.057Z,1023.06
2017-05-22T07:08:05.759Z,1023.06
2017-05-22T07:09:06.480Z,1023.08
2017-05-22T07:10:07.172Z,1023.12
2017-05-22T07:11:07.864Z,1023.13
2017-05-22T07:12:08.553Z,1023.16
2017-05-22T07:13:09.250Z,1023.16
2017-05-22T07:14:09.947Z,1023.15
2017-05-22T07:15:10.660Z,1023.18
2017-05-22T07:16:11.362Z,1023.17
2017-05-22T07:17:12.049Z,1023.2
2017-05-22T07:18:12.742Z,1023.2
2017-05-22T07:19:13.448Z,1023.16
2017-05-22T07:20:14.159Z,1023.14
2017-05-22T07:21:14.846Z,1023.14
2017-05-22T07:22:15.522Z,1023.14
2017-05-22T07:23:16.232Z,1023.14
2017-05-22T07:24:16.923Z,1023.13
2017-05-22T07:25:17.632Z,1023.14
2017-05-22T07:26:18.316Z,1023.15
2017-05-22T07:27:19.007Z,1023.15
2017-05-22T07:28:19.699Z,1023.17
2017-05-22T07:29:20.394Z,1023.21
2017-05-22T07:30:21.097Z,1023.21
2017-05-22T07:31:21.784Z,1023.23
2017-05-22T07:32:22.474Z,1023.26
2017-05-22T07:33:23.170Z,1023.29
2017-05-22T07:34:23.868Z,1023.27
2017-05-22T07:35:24.554Z,1023.22
2017-05-22T07:36:25.240Z,1023.22
2017-05-22T07:37:25.928Z,1023.15
2017-05-22T07:38:26.617Z,1023.1
2017-05-22T07:39:27.317Z,1023.05
2017-05-22T07:40:27.991Z,1023.07
2017-05-22T07:41:28.678Z,1023.08
2017-05-22T07:42:29.373Z,1023.05
2017-05-22T07:43:30.065Z,1022.99
2017-05-22T07:44:30.762Z,1023
2017-05-22T07:45:31.453Z,1023
2017-05-22T07:46:32.159Z,1022.94
2017-05-22T07:47:32.849Z,1022.92
2017-05-22T07:48:33.561Z,1022.86
2017-05-22T07:49:34.250Z,1022.86
2017-05-22T07:50:34.956Z,1022.81
2017-05-22T07:51:35.674Z,1022.82
2017-05-22T07:52:36.358Z,1022.81
2017-05-22T07:53:37.078Z,1022.82
2017-05-22T07:54:37.771Z,1022.77
2017-05-22T07:55:38.487Z,1022.8
2017-05-22T07:56:39.168Z,1022.79
2017-05-22T07:57:39.873Z,1022.79
2017-05-22T07:58:40.573Z,1022.77
2017-05-22T07:59:41.266Z,1022.77
2017-05-22T08:00:41.950Z,1022.76
2017-05-22T08:01:42.649Z,1022.77
2017-05-22T08:02:43.363Z,1022.76
2017-05-22T08:03:44.075Z,1022.77
2017-05-22T08:04:44.777Z,1022.72
2017-05-22T08:05:45.475Z,1022.71
2017-05-22T08:06:46.166Z,1022.75
2017-05-22T08:07:46.880Z,1022.69
2017-05-22T08:08:47.588Z,1022.68
2017-05-22T08:09:48.269Z,1022.72
2017-05-22T08:10:48.978Z,1022.71
2017-05-22T08:11:49.675Z,1022.69
2017-05-22T08:12:50.368Z,1022.68
2017-05-22T08:13:51.076Z,1022.67
2017-05-22T08:14:51.785Z,1022.67
2017-05-22T08:15:52.478Z,1022.62
2017-05-22T08:16:53.179Z,1022.62
2017-05-22T08:17:53.888Z,1022.62
2017-05-22T08:18:54.591Z,1022.62
2017-05-22T08:19:55.273Z,1022.64
2017-05-22T08:20:55.984Z,1022.65
2017-05-22T08:21:56.673Z,1022.65
2017-05-22T08:22:57.362Z,1022.66
2017-05-22T08:23:58.121Z,1022.67
2017-05-22T08:24:58.808Z,1022.67
2017-05-22T08:25:59.500Z,1022.64
2017-05-22T08:27:00.201Z,1022.67
2017-05-22T08:28:00.901Z,1022.65
2017-05-22T08:29:01.596Z,1022.61
2017-05-22T08:30:02.296Z,1022.6
2017-05-22T08:31:02.994Z,1022.62
2017-05-22T08:32:03.695Z,1022.6
2017-05-22T08:33:04.392Z,1022.6
2017-05-22T08:34:05.095Z,1022.59
2017-05-22T08:35:05.837Z,1022.56
2017-05-22T08:36:06.532Z,1022.57
2017-05-22T08:37:07.236Z,1022.55
2017-05-22T08:38:07.956Z,1022.57
2017-05-22T08:39:08.663Z,1022.62
2017-05-22T08:40:09.382Z,1022.5
2017-05-22T08:41:10.074Z,1022.55
2017-05-22T08:42:10.785Z,1022.56
2017-05-22T08:43:11.476Z,1022.53
2017-05-22T08:44:12.184Z,1022.54
2017-05-22T08:45:12.878Z,1022.53
2017-05-22T08:46:13.593Z,1022.53
2017-05-22T08:47:14.316Z,1022.52
2017-05-22T08:48:15.039Z,1022.5
2017-05-22T08:49:15.727Z,1022.52
2017-05-22T08:50:16.432Z,1022.53
2017-05-22T08:51:17.137Z,1022.48
2017-05-22T08:52:17.837Z,1022.48
2017-05-22T08:53:18.558Z,1022.44
2017-05-22T08:54:19.275Z,1022.48
2017-05-22T08:55:19.969Z,1022.44
2017-05-22T08:56:20.682Z,1022.46
2017-05-22T08:57:21.391Z,1022.44
2017-05-22T08:58:22.080Z,1022.41
2017-05-22T08:59:22.759Z,1022.39
2017-05-22T09:00:23.475Z,1022.4
2017-05-22T09:01:24.191Z,1022.36
2017-05-22T09:02:24.909Z,1022.4
2017-05-22T09:03:25.627Z,1022.4
2017-05-22T09:04:26.341Z,1022.36
2017-05-22T09:05:27.045Z,1022.38
2017-05-22T09:06:27.764Z,1022.36
2017-05-22T09:07:28.470Z,1022.41
2017-05-22T09:08:29.165Z,1022.38
2017-05-22T09:09:29.857Z,1022.41
2017-05-22T09:10:30.576Z,1022.43
2017-05-22T09:11:31.286Z,1022.42
2017-05-22T09:12:31.986Z,1022.38
2017-05-22T09:13:32.712Z,1022.29
2017-05-22T09:14:33.424Z,1022.33
2017-05-22T09:15:34.128Z,1022.31
2017-05-22T09:16:34.846Z,1022.29
2017-05-22T09:17:35.551Z,1022.32
2017-05-22T09:18:36.246Z,1022.25
2017-05-22T09:19:36.954Z,1022.23
2017-05-22T09:20:37.680Z,1022.24
2017-05-22T09:21:38.372Z,1022.25
2017-05-22T09:22:39.087Z,1022.25
2017-05-22T09:23:39.805Z,1022.25
2017-05-22T09:24:40.506Z,1022.21
2017-05-22T09:25:41.216Z,1022.21
2017-05-22T09:26:41.919Z,1022.17
2017-05-22T09:27:42.670Z,1022.2
2017-05-22T09:28:43.330Z,1022.18
2017-05-22T09:29:44.052Z,1022.18
2017-05-22T09:30:44.742Z,1022.2
2017-05-22T09:31:45.457Z,1022.21
2017-05-22T09:32:46.142Z,1022.14
2017-05-22T09:33:46.864Z,1022.15
2017-05-22T09:34:47.576Z,1022.2
2017-05-22T09:35:48.307Z,1022.15
2017-05-22T09:36:48.998Z,1022.16
2017-05-22T09:37:49.701Z,1022.14
2017-05-22T09:38:50.412Z,1022.09
2017-05-22T09:39:51.106Z,1022.07
2017-05-22T09:40:51.869Z,1022.09
2017-05-22T09:41:52.584Z,1022.07
2017-05-22T09:42:53.293Z,1022.02
2017-05-22T09:43:54.008Z,1021.97
2017-05-22T09:44:54.696Z,1022.02
2017-05-22T09:45:55.402Z,1022.07
2017-05-22T09:46:56.101Z,1022.03
2017-05-22T09:47:56.803Z,1022.01
2017-05-22T09:48:57.508Z,1021.95
2017-05-22T09:49:58.188Z,1021.93
2017-05-22T09:50:58.920Z,1021.9
2017-05-22T09:51:59.635Z,1021.85
2017-05-22T09:53:00.328Z,1021.84
2017-05-22T09:54:01.024Z,1021.93
2017-05-22T09:55:01.735Z,1021.89
2017-05-22T09:56:02.431Z,1021.83
2017-05-22T09:57:03.135Z,1021.79
2017-05-22T09:58:03.891Z,1021.81
2017-05-22T09:59:04.639Z,1021.8
2017-05-22T10:00:05.387Z,1021.81
2017-05-22T10:01:06.088Z,1021.84
2017-05-22T10:02:06.792Z,1021.86
2017-05-22T10:03:07.471Z,1021.84
2017-05-22T10:04:08.175Z,1021.9
2017-05-22T10:05:08.869Z,1021.86
2017-05-22T10:06:09.579Z,1021.83
2017-05-22T10:07:10.281Z,1021.82
2017-05-22T10:08:11.008Z,1021.81
2017-05-22T10:09:11.715Z,1021.71
2017-05-22T10:10:12.452Z,1021.72
2017-05-22T10:11:13.134Z,1021.8
2017-05-22T10:12:13.842Z,1021.79
2017-05-22T10:13:14.535Z,1021.81
2017-05-22T10:14:15.219Z,1021.73
2017-05-22T10:15:15.900Z,1021.74
2017-05-22T10:16:16.603Z,1021.74
2017-05-22T10:17:17.307Z,1021.73
2017-05-22T10:18:18.002Z,1021.69
2017-05-22T10:19:18.701Z,1021.69
2017-05-22T10:20:19.396Z,1021.64
2017-05-22T10:21:20.097Z,1021.65
2017-05-22T10:22:20.781Z,1021.62
2017-05-22T10:23:21.472Z,1021.63
2017-05-22T10:24:22.153Z,1021.62
2017-05-22T10:25:22.860Z,1021.57
2017-05-22T10:26:23.539Z,1021.56
2017-05-22T10:27:24.228Z,1021.54
2017-05-22T10:28:24.921Z,1021.54
2017-05-22T10:29:25.606Z,1021.54
2017-05-22T10:30:26.297Z,1021.67
2017-05-22T10:31:27.005Z,1021.59
2017-05-22T10:32:27.726Z,1021.5
2017-05-22T10:33:28.390Z,1021.48
2017-05-22T10:34:29.095Z,1021.49
2017-05-22T10:35:29.811Z,1021.52
2017-05-22T10:36:30.506Z,1021.49
2017-05-22T10:37:31.205Z,1021.44
2017-05-22T10:38:31.895Z,1021.45
2017-05-22T10:39:32.573Z,1021.43
2017-05-22T10:40:33.276Z,1021.39
2017-05-22T10:41:33.962Z,1021.39
2017-05-22T10:42:34.650Z,1021.38
2017-05-22T10:43:35.357Z,1021.47
2017-05-22T10:44:36.053Z,1021.42
2017-05-22T10:45:36.745Z,1021.43
2017-05-22T10:46:37.436Z,1021.41
2017-05-22T10:47:38.112Z,1021.37
2017-05-22T10:48:38.805Z,1021.37
2017-05-22T10:49:39.508Z,1021.4
2017-05-22T10:50:40.204Z,1021.42
2017-05-22T10:51:40.922Z,1021.4
2017-05-22T10:52:41.606Z,1021.37
2017-05-22T10:53:42.309Z,1021.37
2017-05-22T10:54:42.991Z,1021.33
2017-05-22T10:55:43.680Z,1021.35
2017-05-22T10:56:44.380Z,1021.38
2017-05-22T10:57:45.069Z,1021.31
2017-05-22T10:58:45.774Z,1021.35
2017-05-22T10:59:46.454Z,1021.35
2017-05-22T11:00:47.143Z,1021.4
2017-05-22T11:01:47.823Z,1021.37
2017-05-22T11:02:48.521Z,1021.42
2017-05-22T11:03:49.205Z,1021.39
2017-05-22T11:04:49.920Z,1021.37
2017-05-22T11:05:50.603Z,1021.38
2017-05-22T11:06:51.292Z,1021.38
2017-05-22T11:07:51.981Z,1021.38
2017-05-22T11:08:52.652Z,1021.33
2017-05-22T11:09:53.363Z,1021.35
2017-05-22T11:10:54.056Z,1021.34
2017-05-22T11:11:54.743Z,1021.28
2017-05-22T11:12:55.450Z,1021.28
2017-05-22T11:13:56.144Z,1021.31
2017-05-22T11:14:56.844Z,1021.28
2017-05-22T11:15:57.534Z,1021.26
2017-05-22T11:16:58.246Z,1021.22
2017-05-22T11:17:58.925Z,1021.19
2017-05-22T11:18:59.617Z,1021.18
2017-05-22T11:20:00.312Z,1021.11
2017-05-22T11:21:00.994Z,1021.21
2017-05-22T11:22:01.685Z,1021.12
2017-05-22T11:23:02.371Z,1021.13
2017-05-22T11:24:03.063Z,1021.1
2017-05-22T11:25:03.759Z,1021.1
2017-05-22T11:26:04.452Z,1021.1
2017-05-22T11:27:05.144Z,1021.09
2017-05-22T11:28:05.846Z,1021.07
2017-05-22T11:29:06.540Z,1021.05
2017-05-22T11:30:07.238Z,1021.02
2017-05-22T11:31:07.959Z,1021.03
2017-05-22T11:32:08.640Z,1021.04
2017-05-22T11:33:09.307Z,1020.98
2017-05-22T11:34:10.002Z,1021
2017-05-22T11:35:10.689Z,1020.98
2017-05-22T11:36:11.367Z,1020.98
2017-05-22T11:37:12.081Z,1021.02
2017-05-22T11:38:12.777Z,1020.99
2017-05-22T11:39:13.461Z,1021.02
2017-05-22T11:40:14.156Z,1021.01
2017-05-22T11:41:14.845Z,1020.98
2017-05-22T11:42:15.524Z,1020.97
2017-05-22T11:43:16.216Z,1020.98
2017-05-22T11:44:16.911Z,1020.89
2017-05-22T11:45:17.602Z,1020.92
2017-05-22T11:46:18.289Z,1020.9
2017-05-22T11:47:18.980Z,1020.96
2017-05-22T11:48:19.667Z,1020.88
2017-05-22T11:49:20.345Z,1020.81
2017-05-22T11:50:21.032Z,1020.82
2017-05-22T11:51:21.714Z,1020.78
2017-05-22T11:52:22.415Z,1020.75
2017-05-22T11:53:23.106Z,1020.75
2017-05-22T11:54:23.793Z,1020.76
2017-05-22T11:55:24.473Z,1020.78
2017-05-22T11:56:25.159Z,1020.74
2017-05-22T11:57:25.838Z,1020.72
2017-05-22T11:58:26.550Z,1020.72
2017-05-22T11:59:27.224Z,1020.73
2017-05-22T12:00:27.930Z,1020.71
2017-05-22T12:01:28.621Z,1020.73
2017-05-22T12:02:29.324Z,1020.72
2017-05-22T12:03:30.015Z,1020.75
2017-05-22T12:04:30.703Z,1020.7
2017-05-22T12:05:31.403Z,1020.74
2017-05-22T12:06:32.088Z,1020.72
2017-05-22T12:07:32.774Z,1020.7
2017-05-22T12:08:33.455Z,1020.69
2017-05-22T12:09:34.202Z,1020.69
2017-05-22T12:10:34.904Z,1020.67
2017-05-22T12:11:35.594Z,1020.67
2017-05-22T12:12:36.285Z,1020.69
2017-05-22T12:13:37.012Z,1020.69
2017-05-22T12:14:37.663Z,1020.68
2017-05-22T12:15:38.346Z,1020.67
2017-05-22T12:16:39.061Z,1020.67
2017-05-22T12:17:39.742Z,1020.65
2017-05-22T12:18:40.420Z,1020.61
2017-05-22T12:19:41.125Z,1020.64
2017-05-22T12:20:41.799Z,1020.63
2017-05-22T12:21:42.505Z,1020.65
2017-05-22T12:22:43.208Z,1020.58
2017-05-22T12:23:43.887Z,1020.64
2017-05-22T12:24:44.587Z,1020.6
2017-05-22T12:25:45.288Z,1020.59
2017-05-22T12:26:45.977Z,1020.6
2017-05-22T12:27:46.662Z,1020.6
2017-05-22T12:28:47.358Z,1020.6
2017-05-22T12:29:48.057Z,1020.55
2017-05-22T12:30:48.780Z,1020.59
2017-05-22T12:31:49.459Z,1020.55
2017-05-22T12:32:50.148Z,1020.55
2017-05-22T12:33:50.828Z,1020.58
2017-05-22T12:34:51.502Z,1020.52
2017-05-22T12:35:52.188Z,1020.49
2017-05-22T12:36:52.876Z,1020.47
2017-05-22T12:37:53.572Z,1020.48
2017-05-22T12:38:54.290Z,1020.45
2017-05-22T12:39:54.962Z,1020.43
2017-05-22T12:40:55.662Z,1020.46
2017-05-22T12:41:56.364Z,1020.47
2017-05-22T12:42:57.059Z,1020.43
2017-05-22T12:43:57.745Z,1020.41
2017-05-22T12:44:58.432Z,1020.41
2017-05-22T12:45:59.141Z,1020.41
2017-05-22T12:46:59.841Z,1020.46
2017-05-22T12:48:00.529Z,1020.41
2017-05-22T12:49:01.216Z,1020.41
2017-05-22T12:50:01.928Z,1020.34
2017-05-22T12:51:02.613Z,1020.34
2017-05-22T12:52:03.305Z,1020.35
2017-05-22T12:53:03.989Z,1020.33
2017-05-22T12:54:04.687Z,1020.31
2017-05-22T12:55:05.369Z,1020.3
2017-05-22T12:56:06.050Z,1020.32
2017-05-22T12:57:06.746Z,1020.27
2017-05-22T12:58:07.437Z,1020.31
2017-05-22T12:59:08.144Z,1020.28
2017-05-22T13:00:08.835Z,1020.28
2017-05-22T13:01:09.514Z,1020.3
2017-05-22T13:02:10.196Z,1020.29
2017-05-22T13:03:10.906Z,1020.29
2017-05-22T13:04:11.602Z,1020.26
2017-05-22T13:05:12.280Z,1020.23
2017-05-22T13:06:12.961Z,1020.24
2017-05-22T13:07:13.639Z,1020.25
2017-05-22T13:08:14.344Z,1020.22
2017-05-22T13:09:15.013Z,1020.2
2017-05-22T13:10:15.699Z,1020.2
2017-05-22T13:11:16.414Z,1020.24
2017-05-22T13:12:17.107Z,1020.23
2017-05-22T13:13:17.800Z,1020.19
2017-05-22T13:14:18.486Z,1020.22
2017-05-22T13:15:19.162Z,1020.19
2017-05-22T13:16:19.859Z,1020.2
2017-05-22T13:17:20.559Z,1020.15
2017-05-22T13:18:21.266Z,1020.15
2017-05-22T13:19:21.930Z,1020.16
2017-05-22T13:20:22.628Z,1020.12
2017-05-22T13:21:23.326Z,1020.11
2017-05-22T13:22:23.992Z,1020.09
2017-05-22T13:23:24.692Z,1020.09
2017-05-22T13:24:25.384Z,1020.09
2017-05-22T13:25:26.069Z,1020.1
2017-05-22T13:26:26.760Z,1020.08
2017-05-22T13:27:27.439Z,1020.09
2017-05-22T13:28:28.139Z,1020.03
2017-05-22T13:29:28.814Z,1020.03
2017-05-22T13:30:29.501Z,1020.03
2017-05-22T13:31:30.177Z,1020.01
2017-05-22T13:32:30.865Z,1019.96
2017-05-22T13:33:31.564Z,1019.92
2017-05-22T13:34:32.263Z,1019.92
2017-05-22T13:35:32.949Z,1019.87
2017-05-22T13:36:33.649Z,1019.9
2017-05-22T13:37:34.338Z,1019.86
2017-05-22T13:38:35.036Z,1019.85
2017-05-22T13:39:35.718Z,1019.87
2017-05-22T13:40:36.405Z,1019.81
2017-05-22T13:41:37.092Z,1019.84
2017-05-22T13:42:37.816Z,1019.82
2017-05-22T13:43:38.533Z,1019.82
2017-05-22T13:44:39.184Z,1019.8
2017-05-22T13:45:39.878Z,1019.77
2017-05-22T13:46:40.569Z,1019.78
2017-05-22T13:47:41.255Z,1019.78
2017-05-22T13:48:41.939Z,1019.78
2017-05-22T13:49:42.627Z,1019.72
2017-05-22T13:50:43.314Z,1019.74
2017-05-22T13:51:43.992Z,1019.71
2017-05-22T13:52:44.684Z,1019.75
2017-05-22T13:53:45.363Z,1019.76
2017-05-22T13:54:46.063Z,1019.77
2017-05-22T13:55:46.746Z,1019.75
2017-05-22T13:56:47.431Z,1019.77
2017-05-22T13:57:48.131Z,1019.73
2017-05-22T13:58:48.818Z,1019.71
2017-05-22T13:59:49.511Z,1019.74
2017-05-22T14:00:50.204Z,1019.74
2017-05-22T14:01:50.874Z,1019.69
2017-05-22T14:02:51.551Z,1019.7
2017-05-22T14:03:52.237Z,1019.75
2017-05-22T14:04:52.910Z,1019.69
2017-05-22T14:05:53.603Z,1019.66
2017-05-22T14:06:54.329Z,1019.63
2017-05-22T14:07:55.013Z,1019.6
2017-05-22T14:08:55.720Z,1019.63
2017-05-22T14:09:56.426Z,1019.6
2017-05-22T14:10:57.114Z,1019.62
2017-05-22T14:11:57.809Z,1019.62
2017-05-22T14:12:58.493Z,1019.62
2017-05-22T14:13:59.180Z,1019.54
2017-05-22T14:14:59.886Z,1019.55
2017-05-22T14:16:00.582Z,1019.48
2017-05-22T14:17:01.268Z,1019.49
2017-05-22T14:18:01.950Z,1019.48
2017-05-22T14:19:02.625Z,1019.51
2017-05-22T14:20:03.323Z,1019.5
2017-05-22T14:21:04.009Z,1019.51
2017-05-22T14:22:04.721Z,1019.51
2017-05-22T14:23:05.406Z,1019.51
2017-05-22T14:24:06.092Z,1019.52
2017-05-22T14:25:06.793Z,1019.51
2017-05-22T14:26:07.480Z,1019.5
2017-05-22T14:27:08.158Z,1019.48
2017-05-22T14:28:08.836Z,1019.49
2017-05-22T14:29:09.515Z,1019.48
2017-05-22T14:30:10.199Z,1019.43
2017-05-22T14:31:10.892Z,1019.43
2017-05-22T14:32:11.574Z,1019.42
2017-05-22T14:33:12.273Z,1019.36
2017-05-22T14:34:12.968Z,1019.33
2017-05-22T14:35:13.662Z,1019.36
2017-05-22T14:36:14.358Z,1019.35
2017-05-22T14:37:15.024Z,1019.3
2017-05-22T14:38:15.710Z,1019.26
2017-05-22T14:39:16.395Z,1019.27
2017-05-22T14:40:17.088Z,1019.27
2017-05-22T14:41:17.812Z,1019.26
2017-05-22T14:42:18.489Z,1019.24
2017-05-22T14:43:19.215Z,1019.23
2017-05-22T14:44:19.897Z,1019.25
2017-05-22T14:45:20.584Z,1019.23
2017-05-22T14:46:21.262Z,1019.17
2017-05-22T14:47:21.951Z,1019.2
2017-05-22T14:48:22.641Z,1019.13
2017-05-22T14:49:23.330Z,1019.15
2017-05-22T14:50:24.017Z,1019.16
2017-05-22T14:51:24.695Z,1019.15
2017-05-22T14:52:25.391Z,1019.17
2017-05-22T14:53:26.062Z,1019.17
2017-05-22T14:54:26.754Z,1019.12
2017-05-22T14:55:27.450Z,1019.15
2017-05-22T14:56:28.127Z,1019.1
2017-05-22T14:57:28.825Z,1019.12
2017-05-22T14:58:29.515Z,1019.07
2017-05-22T14:59:30.219Z,1019.12
2017-05-22T15:00:30.917Z,1019.09
2017-05-22T15:01:31.598Z,1019.06
2017-05-22T15:02:32.275Z,1019.06
2017-05-22T15:03:32.982Z,1019.02
2017-05-22T15:04:33.666Z,1019.05
2017-05-22T15:05:34.358Z,1019
2017-05-22T15:06:35.063Z,1018.99
2017-05-22T15:07:35.754Z,1018.97
2017-05-22T15:08:36.434Z,1018.98
2017-05-22T15:09:37.119Z,1018.93
2017-05-22T15:10:37.796Z,1018.99
2017-05-22T15:11:38.477Z,1018.99
2017-05-22T15:12:39.173Z,1018.97
2017-05-22T15:13:39.853Z,1018.95
2017-05-22T15:14:40.544Z,1018.89
2017-05-22T15:15:41.229Z,1018.89
2017-05-22T15:16:41.919Z,1018.87
2017-05-22T15:17:42.591Z,1018.92
2017-05-22T15:18:43.271Z,1018.91
2017-05-22T15:19:43.947Z,1018.9
2017-05-22T15:20:44.629Z,1018.86
2017-05-22T15:21:45.331Z,1018.86
2017-05-22T15:22:46.016Z,1018.87
2017-05-22T15:23:46.703Z,1018.86
2017-05-22T15:24:47.399Z,1018.91
2017-05-22T15:25:48.085Z,1018.92
2017-05-22T15:26:48.758Z,1018.92
2017-05-22T15:27:49.447Z,1018.9
2017-05-22T15:28:50.113Z,1018.92
2017-05-22T15:29:50.809Z,1018.89
2017-05-22T15:30:51.504Z,1018.9
2017-05-22T15:31:52.178Z,1018.83
2017-05-22T15:32:52.869Z,1018.83
2017-05-22T15:33:53.553Z,1018.77
2017-05-22T15:34:54.236Z,1018.79
2017-05-22T15:35:54.922Z,1018.79
2017-05-22T15:36:55.597Z,1018.74
2017-05-22T15:37:56.275Z,1018.73
2017-05-22T15:38:56.965Z,1018.75
2017-05-22T15:39:57.717Z,1018.73
2017-05-22T15:40:58.398Z,1018.71
2017-05-22T15:41:59.086Z,1018.69
2017-05-22T15:42:59.759Z,1018.67
2017-05-22T15:44:00.450Z,1018.66
2017-05-22T15:45:01.140Z,1018.68
2017-05-22T15:46:01.828Z,1018.6
2017-05-22T15:47:02.507Z,1018.61
2017-05-22T15:48:03.201Z,1018.59
2017-05-22T15:49:03.882Z,1018.56
2017-05-22T15:50:04.587Z,1018.57
2017-05-22T15:51:05.277Z,1018.58
2017-05-22T15:52:05.952Z,1018.56
2017-05-22T15:53:06.651Z,1018.55
2017-05-22T15:54:07.356Z,1018.58
2017-05-22T15:55:08.057Z,1018.59
2017-05-22T15:56:08.760Z,1018.57
2017-05-22T15:57:09.433Z,1018.61
2017-05-22T15:58:10.228Z,1018.55
2017-05-22T15:59:10.936Z,1018.62
2017-05-22T16:00:11.653Z,1018.56
2017-05-22T16:01:12.398Z,1018.56
2017-05-22T16:02:13.090Z,1018.54
2017-05-22T16:03:13.796Z,1018.52
2017-05-22T16:04:14.487Z,1018.48
2017-05-22T16:05:15.241Z,1018.5
2017-05-22T16:06:16.049Z,1018.45
2017-05-22T16:07:16.735Z,1018.41
2017-05-22T16:08:17.411Z,1018.44
2017-05-22T16:09:18.092Z,1018.4
2017-05-22T16:10:18.781Z,1018.38
2017-05-22T16:11:19.472Z,1018.38
2017-05-22T16:12:20.171Z,1018.38
2017-05-22T16:13:20.847Z,1018.4
2017-05-22T16:14:21.545Z,1018.37
2017-05-22T16:15:22.234Z,1018.32
2017-05-22T16:16:22.923Z,1018.33
2017-05-22T16:17:23.607Z,1018.34
2017-05-22T16:18:24.324Z,1018.31
2017-05-22T16:19:25.055Z,1018.33
2017-05-22T16:20:25.730Z,1018.29
2017-05-22T16:21:26.420Z,1018.28
2017-05-22T16:22:27.110Z,1018.25
2017-05-22T16:23:27.795Z,1018.22
2017-05-22T16:24:28.508Z,1018.23
2017-05-22T16:25:29.193Z,1018.2
2017-05-22T16:26:29.893Z,1018.21
2017-05-22T16:27:30.582Z,1018.16
2017-05-22T16:28:31.266Z,1018.18
2017-05-22T16:29:31.960Z,1018.14
2017-05-22T16:30:32.642Z,1018.1
2017-05-22T16:31:33.309Z,1018.08
2017-05-22T16:32:33.983Z,1018.11
2017-05-22T16:33:34.693Z,1018.14
2017-05-22T16:34:35.379Z,1018.12
2017-05-22T16:35:36.077Z,1018.1
2017-05-22T16:36:36.760Z,1018.13
2017-05-22T16:37:37.455Z,1018.11
2017-05-22T16:38:38.135Z,1018.09
2017-05-22T16:39:38.820Z,1018.14
2017-05-22T16:40:39.562Z,1018.13
2017-05-22T16:41:40.231Z,1018.15
2017-05-22T16:42:40.911Z,1018.13
2017-05-22T16:43:41.633Z,1018.14
2017-05-22T16:44:42.314Z,1018.13
2017-05-22T16:45:43.000Z,1018.12
2017-05-22T16:46:43.723Z,1018.13
2017-05-22T16:47:44.452Z,1018.13
2017-05-22T16:48:45.124Z,1018.08
2017-05-22T16:49:45.835Z,1018.06
2017-05-22T16:50:46.520Z,1018.1
2017-05-22T16:51:47.273Z,1018.07
2017-05-22T16:52:47.954Z,1018.05
2017-05-22T16:53:48.924Z,1018.04
2017-05-22T16:54:49.662Z,1018.04
2017-05-22T16:55:50.440Z,1018.03
2017-05-22T16:56:51.105Z,1018.04
2017-05-22T16:57:51.820Z,1018.05
2017-05-22T16:58:52.500Z,1018.01
2017-05-22T16:59:53.188Z,1018.02
2017-05-22T17:00:54.049Z,1018.01
2017-05-22T17:01:54.762Z,1018.02
2017-05-22T17:02:55.450Z,1018.03
2017-05-22T17:03:56.179Z,1017.98
2017-05-22T17:04:56.936Z,1017.99
2017-05-22T17:05:57.714Z,1017.95
2017-05-22T17:06:58.389Z,1017.95
2017-05-22T17:07:59.080Z,1017.94
2017-05-22T17:08:59.768Z,1017.92
2017-05-22T17:10:00.446Z,1017.91
2017-05-22T17:11:01.127Z,1017.93
2017-05-22T17:12:01.832Z,1017.93
2017-05-22T17:13:02.493Z,1017.93
2017-05-22T17:14:03.172Z,1017.92
2017-05-22T17:15:03.862Z,1017.91
2017-05-22T17:16:04.538Z,1017.95
2017-05-22T17:17:05.335Z,1017.95
2017-05-22T17:18:06.021Z,1017.93
2017-05-22T17:19:06.692Z,1017.95
2017-05-22T17:20:07.393Z,1017.92
2017-05-22T17:21:08.070Z,1017.94